createdAt,value
2019-05-15T00:00:49.017Z,86.04
2019-05-15T00:03:19.943Z,85.96
2019-05-15T00:05:49.503Z,86.31
2019-05-15T00:08:18.459Z,86.38
2019-05-15T00:10:48.415Z,85.86
2019-05-15T00:13:18.463Z,85.66
2019-05-15T00:15:48.140Z,83.50
2019-05-15T00:18:18.589Z,83.81
2019-05-15T00:20:49.705Z,84.40
2019-05-15T00:23:18.360Z,84.28
2019-05-15T00:25:48.741Z,84.12
2019-05-15T00:28:18.549Z,84.57
2019-05-15T00:30:48.158Z,83.14
2019-05-15T00:33:19.167Z,84.45
2019-05-15T00:35:48.564Z,83.87
2019-05-15T00:38:18.617Z,83.68
2019-05-15T00:40:49.601Z,84.35
2019-05-15T00:43:18.405Z,83.92
2019-05-15T00:45:48.838Z,84.30
2019-05-15T00:48:19.330Z,82.98
2019-05-15T00:50:48.558Z,83.51
2019-05-15T00:53:19.643Z,83.50
2019-05-15T00:55:48.621Z,82.62
2019-05-15T00:58:19.906Z,82.90
2019-05-15T01:00:48.636Z,82.85
2019-05-15T01:03:18.272Z,81.12
2019-05-15T01:05:48.085Z,82.94
2019-05-15T01:08:19.152Z,83.40
2019-05-15T01:10:48.854Z,81.60
2019-05-15T01:13:18.951Z,82.02
2019-05-15T01:15:48.931Z,83.51
2019-05-15T01:18:18.671Z,82.86
2019-05-15T01:20:49.276Z,82.24
2019-05-15T01:23:18.755Z,83.35
2019-05-15T01:25:48.238Z,82.34
2019-05-15T01:28:18.398Z,82.07
2019-05-15T01:30:48.698Z,81.96
2019-05-15T01:33:18.909Z,80.79
2019-05-15T01:35:48.762Z,80.90
2019-05-15T01:38:18.677Z,82.31
2019-05-15T01:40:48.510Z,82.28
2019-05-15T01:43:18.693Z,82.38
2019-05-15T01:45:48.311Z,81.75
2019-05-15T01:48:18.947Z,82.65
2019-05-15T01:50:49.209Z,81.84
2019-05-15T01:53:18.712Z,82.28
2019-05-15T01:55:48.340Z,82.71
2019-05-15T01:58:18.568Z,83.27
2019-05-15T02:00:48.372Z,84.09
2019-05-15T02:03:18.374Z,83.66
2019-05-15T02:05:48.095Z,83.58
2019-05-15T02:08:19.074Z,83.94
2019-05-15T02:10:49.417Z,84.40
2019-05-15T02:13:18.675Z,84.38
2019-05-15T02:15:48.254Z,84.02
2019-05-15T02:18:19.152Z,84.30
2019-05-15T02:20:49.417Z,83.73
2019-05-15T02:23:18.917Z,83.62
2019-05-15T02:25:48.210Z,84.96
2019-05-15T02:28:18.380Z,85.07
2019-05-15T02:30:50.347Z,84.46
2019-05-15T02:33:18.925Z,84.12
2019-05-15T02:35:50.069Z,83.45
2019-05-15T02:38:19.952Z,83.83
2019-05-15T02:40:49.369Z,84.92
2019-05-15T02:43:18.975Z,83.33
2019-05-15T02:45:50.955Z,83.93
2019-05-15T02:48:19.903Z,83.97
2019-05-15T02:50:50.125Z,83.82
2019-05-15T02:53:19.182Z,83.25
2019-05-15T02:55:49.497Z,83.63
2019-05-15T02:58:21.283Z,84.26
2019-05-15T03:00:53.117Z,83.98
2019-05-15T03:03:20.664Z,84.09
2019-05-15T03:05:49.948Z,83.29
2019-05-15T03:08:19.517Z,83.33
2019-05-15T03:10:49.648Z,82.82
2019-05-15T03:13:19.003Z,83.87
2019-05-15T03:15:48.864Z,83.50
2019-05-15T03:18:19.421Z,83.55
2019-05-15T03:20:50.104Z,83.16
2019-05-15T03:23:19.993Z,83.34
2019-05-15T03:25:49.262Z,83.49
2019-05-15T03:28:19.087Z,84.63
2019-05-15T03:31:14.703Z,83.04
2019-05-15T03:33:27.420Z,83.34
2019-05-15T03:35:54.199Z,83.27
2019-05-15T03:38:19.629Z,84.27
2019-05-15T03:40:49.853Z,84.26
2019-05-15T03:43:18.767Z,84.70
2019-05-15T03:45:49.272Z,85.22
2019-05-15T03:48:19.651Z,84.74
2019-05-15T03:50:49.079Z,85.50
2019-05-15T03:53:19.265Z,84.81
2019-05-15T03:55:48.934Z,83.73
2019-05-15T03:58:21.481Z,81.67
2019-05-15T04:00:49.748Z,82.27
2019-05-15T04:03:20.279Z,81.82
2019-05-15T04:05:49.506Z,82.16
2019-05-15T04:08:19.463Z,82.56
2019-05-15T04:10:48.919Z,81.63
2019-05-15T04:13:19.481Z,82.18
2019-05-15T04:15:50.318Z,82.18
2019-05-15T04:18:19.872Z,82.80
2019-05-15T04:20:49.461Z,81.81
2019-05-15T04:23:22.848Z,81.29
2019-05-15T04:25:53.377Z,80.25
2019-05-15T04:28:23.449Z,79.68
2019-05-15T04:30:52.121Z,79.89
2019-05-15T04:33:20.792Z,80.13
2019-05-15T04:35:49.813Z,79.76
2019-05-15T04:38:19.537Z,79.03
2019-05-15T04:40:50.026Z,79.40
2019-05-15T04:43:19.535Z,79.43
2019-05-15T04:45:49.761Z,78.83
2019-05-15T04:48:20.103Z,78.27
2019-05-15T04:50:49.812Z,77.52
2019-05-15T04:53:19.212Z,76.27
2019-05-15T04:55:49.113Z,76.48
2019-05-15T04:58:20.759Z,76.54
2019-05-15T05:00:53.168Z,74.31
2019-05-15T05:03:21.843Z,74.81
2019-05-15T05:05:51.028Z,73.66
2019-05-15T05:08:20.661Z,73.68
2019-05-15T05:10:49.715Z,73.67
2019-05-15T05:13:19.983Z,72.67
2019-05-15T05:15:50.110Z,72.39
2019-05-15T05:18:19.684Z,73.38
2019-05-15T05:20:48.785Z,73.13
2019-05-15T05:23:19.285Z,73.22
2019-05-15T05:25:49.183Z,73.66
2019-05-15T05:28:18.557Z,73.81
2019-05-15T05:30:48.389Z,73.14
2019-05-15T05:33:18.381Z,72.74
2019-05-15T05:35:48.451Z,73.46
2019-05-15T05:38:19.088Z,72.91
2019-05-15T05:40:49.495Z,72.08
2019-05-15T05:43:19.059Z,70.97
2019-05-15T05:45:49.248Z,71.91
2019-05-15T05:48:18.969Z,72.37
2019-05-15T05:50:49.660Z,72.93
2019-05-15T05:53:21.189Z,72.96
2019-05-15T05:55:52.940Z,72.80
2019-05-15T05:58:20.413Z,73.15
2019-05-15T06:00:49.840Z,73.46
2019-05-15T06:03:19.541Z,73.46
2019-05-15T06:05:49.723Z,72.70
2019-05-15T06:08:19.865Z,72.68
2019-05-15T06:10:49.771Z,72.15
2019-05-15T06:13:19.819Z,72.08
2019-05-15T06:15:49.086Z,73.33
2019-05-15T06:18:19.752Z,72.65
2019-05-15T06:20:49.798Z,73.26
2019-05-15T06:23:24.875Z,72.42
2019-05-15T06:25:50.267Z,72.27
2019-05-15T06:28:20.351Z,72.64
2019-05-15T06:30:49.339Z,73.28
2019-05-15T06:33:18.850Z,72.77
2019-05-15T06:35:49.418Z,73.80
2019-05-15T06:38:19.508Z,73.47
2019-05-15T06:40:49.175Z,73.04
2019-05-15T06:43:19.135Z,72.67
2019-05-15T06:45:49.172Z,72.54
2019-05-15T06:48:18.755Z,70.81
2019-05-15T06:50:49.043Z,70.73
2019-05-15T06:53:19.282Z,71.35
2019-05-15T06:55:48.912Z,70.36
2019-05-15T06:58:19.084Z,70.64
2019-05-15T07:00:49.326Z,70.46
2019-05-15T07:03:25.421Z,70.79
2019-05-15T07:05:50.284Z,71.06
2019-05-15T07:08:18.401Z,70.08
2019-05-15T07:10:48.614Z,70.27
2019-05-15T07:13:18.324Z,70.10
2019-05-15T07:15:49.397Z,69.74
2019-05-15T07:18:19.693Z,69.67
2019-05-15T07:20:49.247Z,68.98
2019-05-15T07:23:19.057Z,68.08
2019-05-15T07:25:49.661Z,67.78
2019-05-15T07:28:18.907Z,68.75
2019-05-15T07:30:49.334Z,68.53
2019-05-15T07:33:27.895Z,69.15
2019-05-15T07:35:49.631Z,69.34
2019-05-15T07:38:18.698Z,68.97
2019-05-15T07:40:55.457Z,67.26
2019-05-15T07:43:18.292Z,67.67
2019-05-15T07:45:54.021Z,66.52
2019-05-15T07:48:18.762Z,66.71
2019-05-15T07:50:49.793Z,66.03
2019-05-15T07:53:19.621Z,63.98
2019-05-15T07:55:50.545Z,63.46
2019-05-15T07:58:21.616Z,61.44
2019-05-15T08:00:50.137Z,61.64
2019-05-15T08:03:18.935Z,62.25
2019-05-15T08:05:58.283Z,62.35
2019-05-15T08:08:18.686Z,63.58
2019-05-15T08:10:49.026Z,62.44
2019-05-15T08:13:18.625Z,61.80
2019-05-15T08:15:48.772Z,61.43
2019-05-15T08:18:18.548Z,61.76
2019-05-15T08:20:48.925Z,62.05
2019-05-15T08:23:19.309Z,60.62
2019-05-15T08:25:48.850Z,60.68
2019-05-15T08:28:19.165Z,59.94
2019-05-15T08:30:49.453Z,59.74
2019-05-15T08:33:19.265Z,58.86
2019-05-15T08:35:51.566Z,60.71
2019-05-15T08:38:18.741Z,60.37
2019-05-15T08:40:49.001Z,58.90
2019-05-15T08:43:18.797Z,57.79
2019-05-15T08:45:49.579Z,55.49
2019-05-15T08:48:18.671Z,54.01
2019-05-15T08:50:48.640Z,52.72
2019-05-15T08:53:19.301Z,53.29
2019-05-15T08:55:49.655Z,51.95
2019-05-15T08:58:20.112Z,49.49
2019-05-15T09:00:52.422Z,50.09
2019-05-15T09:03:20.282Z,51.88
2019-05-15T09:05:49.040Z,50.96
2019-05-15T09:08:19.259Z,50.96
2019-05-15T09:10:50.257Z,50.22
2019-05-15T09:13:19.229Z,50.22
2019-05-15T09:15:49.287Z,49.97
2019-05-15T09:18:20.201Z,50.93
2019-05-15T09:20:49.466Z,49.06
2019-05-15T09:23:20.293Z,49.66
2019-05-15T09:25:49.718Z,48.52
2019-05-15T09:28:19.484Z,48.14
2019-05-15T09:30:48.863Z,49.16
2019-05-15T09:33:19.930Z,48.24
2019-05-15T09:35:49.299Z,48.73
2019-05-15T09:38:18.785Z,48.73
2019-05-15T09:40:50.186Z,49.83
2019-05-15T09:43:18.394Z,49.83
2019-05-15T09:45:49.239Z,50.06
2019-05-15T09:48:19.730Z,48.94
2019-05-15T09:50:49.302Z,49.58
2019-05-15T09:53:19.108Z,48.81
2019-05-15T09:55:49.382Z,50.67
2019-05-15T09:58:20.418Z,50.83
2019-05-15T10:00:52.044Z,48.73
2019-05-15T10:03:20.723Z,48.73
2019-05-15T10:05:49.538Z,51.27
2019-05-15T10:08:21.331Z,53.75
2019-05-15T10:10:49.164Z,54.62
2019-05-15T10:13:18.711Z,54.06
2019-05-15T10:15:50.894Z,54.47
2019-05-15T10:18:19.070Z,54.27
2019-05-15T10:20:48.413Z,55.29
2019-05-15T10:23:19.633Z,54.84
2019-05-15T10:25:48.579Z,54.03
2019-05-15T10:28:19.198Z,55.20
2019-05-15T10:30:49.683Z,55.12
2019-05-15T10:33:20.103Z,56.35
2019-05-15T10:35:49.299Z,58.22
2019-05-15T10:38:19.389Z,60.73
2019-05-15T10:41:00.054Z,57.17
2019-05-15T10:43:20.668Z,54.58
2019-05-15T10:45:50.206Z,54.24
2019-05-15T10:48:22.771Z,53.71
2019-05-15T10:50:51.435Z,52.22
2019-05-15T10:53:20.353Z,51.92
2019-05-15T10:55:49.683Z,49.79
2019-05-15T10:58:22.036Z,49.79
2019-05-15T11:00:49.589Z,48.12
2019-05-15T11:03:19.983Z,44.87
2019-05-15T11:05:50.437Z,43.70
2019-05-15T11:08:19.313Z,42.98
2019-05-15T11:10:49.460Z,43.12
2019-05-15T11:13:19.005Z,38.13
2019-05-15T11:15:49.111Z,36.69
2019-05-15T11:18:18.186Z,38.45
2019-05-15T11:20:48.484Z,40.15
2019-05-15T11:23:20.133Z,42.80
2019-05-15T11:25:48.965Z,43.07
2019-05-15T11:28:17.892Z,44.36
2019-05-15T11:30:48.944Z,46.25
2019-05-15T11:33:18.883Z,48.02
2019-05-15T11:35:58.006Z,47.38
2019-05-15T11:38:19.482Z,49.18
2019-05-15T11:40:48.540Z,49.95
2019-05-15T11:43:19.776Z,52.45
2019-05-15T11:45:50.864Z,54.56
2019-05-15T11:48:20.678Z,54.56
2019-05-15T11:50:49.617Z,56.30
2019-05-15T11:53:19.216Z,56.45
2019-05-15T11:55:48.497Z,57.93
2019-05-15T11:58:18.913Z,58.53
2019-05-15T12:00:49.087Z,57.88
2019-05-15T12:03:19.101Z,59.00
2019-05-15T12:05:48.237Z,61.69
2019-05-15T12:08:18.591Z,63.61
2019-05-15T12:10:47.322Z,64.51
2019-05-15T12:13:18.700Z,65.55
2019-05-15T12:15:48.435Z,63.62
2019-05-15T12:18:16.967Z,67.41
2019-05-15T12:20:48.324Z,67.46
2019-05-15T12:23:16.519Z,67.85
2019-05-15T12:25:48.496Z,67.92
2019-05-15T12:28:15.868Z,66.87
2019-05-15T12:30:48.680Z,67.61
2019-05-15T12:33:18.321Z,68.69
2019-05-15T12:35:50.236Z,68.72
2019-05-15T12:38:18.603Z,70.84
2019-05-15T13:00:51.547Z,69.27
2019-05-15T13:03:20.228Z,66.55
2019-05-15T13:05:48.967Z,66.17
2019-05-15T13:08:19.476Z,65.10
2019-05-15T13:10:48.817Z,65.87
2019-05-15T13:13:18.713Z,66.34
2019-05-15T13:15:48.241Z,67.87
2019-05-15T13:18:18.034Z,69.64
2019-05-15T13:20:48.972Z,68.79
2019-05-15T13:23:17.204Z,69.55
2019-05-15T13:25:48.144Z,70.45
2019-05-15T13:28:18.348Z,70.65
2019-05-15T13:30:48.959Z,71.60
2019-05-15T13:33:17.190Z,71.97
2019-05-15T13:35:45.886Z,72.35
2019-05-15T13:38:14.539Z,71.60
2019-05-15T13:40:43.321Z,70.37
2019-05-15T13:43:12.006Z,70.69
2019-05-15T13:45:40.686Z,68.40
2019-05-15T13:48:09.379Z,69.65
2019-05-15T13:50:40.428Z,69.77
2019-05-15T13:53:11.138Z,70.87
2019-05-15T13:55:42.833Z,70.46
2019-05-15T13:58:10.956Z,69.14
2019-05-15T14:00:39.726Z,70.88
2019-05-15T14:03:09.360Z,70.24
2019-05-15T14:05:38.795Z,70.70
2019-05-15T14:08:07.650Z,72.00
2019-05-15T14:10:38.656Z,72.20
2019-05-15T14:13:06.848Z,73.06
2019-05-15T14:15:38.031Z,70.79
2019-05-15T14:18:08.384Z,68.64
2019-05-15T14:20:38.641Z,68.64
2019-05-15T14:23:08.697Z,67.12
2019-05-15T14:25:38.791Z,61.18
2019-05-15T14:28:08.907Z,55.02
2019-05-15T14:30:37.951Z,51.40
2019-05-15T14:33:08.572Z,52.49
2019-05-15T14:35:37.936Z,53.17
2019-05-15T14:38:10.177Z,52.93
2019-05-15T14:40:37.494Z,55.04
2019-05-15T14:43:08.894Z,55.83
2019-05-15T14:45:38.832Z,56.46
2019-05-15T14:48:08.910Z,57.89
2019-05-15T14:50:38.438Z,59.10
2019-05-15T14:53:09.551Z,58.82
2019-05-15T14:55:44.034Z,58.04
2019-05-15T14:58:08.545Z,59.70
2019-05-15T15:00:41.228Z,60.02
2019-05-15T15:03:09.769Z,61.28
2019-05-15T15:05:38.811Z,61.28
2019-05-15T15:08:18.479Z,62.57
2019-05-15T15:10:38.592Z,64.21
2019-05-15T15:13:09.373Z,66.04
2019-05-15T15:15:38.174Z,66.56
2019-05-15T15:18:08.359Z,66.94
2019-05-15T15:20:38.079Z,66.05
2019-05-15T15:23:08.438Z,61.98
2019-05-15T15:25:39.793Z,57.03
2019-05-15T15:28:08.620Z,58.99
2019-05-15T15:30:38.509Z,60.71
2019-05-15T15:33:08.580Z,61.45
2019-05-15T15:35:38.345Z,63.02
2019-05-15T15:38:12.711Z,63.69
2019-05-15T15:40:38.810Z,60.74
2019-05-15T15:43:09.044Z,59.23
2019-05-15T15:45:39.100Z,56.67
2019-05-15T15:48:08.675Z,56.59
2019-05-15T15:50:38.365Z,56.36
2019-05-15T15:53:08.834Z,54.42
2019-05-15T15:55:38.775Z,55.31
2019-05-15T15:58:08.754Z,55.56
2019-05-15T16:00:38.708Z,56.38
2019-05-15T16:03:08.448Z,58.06
2019-05-15T16:05:38.383Z,60.25
2019-05-15T16:08:08.490Z,62.87
2019-05-15T16:10:37.925Z,62.62
2019-05-15T16:13:09.183Z,64.61
2019-05-15T16:15:38.477Z,64.28
2019-05-15T16:18:09.011Z,65.79
2019-05-15T16:20:39.576Z,67.27
2019-05-15T16:23:08.767Z,68.18
2019-05-15T16:25:38.527Z,68.29
2019-05-15T16:28:08.830Z,67.88
2019-05-15T16:30:50.263Z,68.97
2019-05-15T16:33:09.521Z,69.38
2019-05-15T16:35:38.718Z,69.39
2019-05-15T16:38:09.276Z,70.20
2019-05-15T16:40:38.392Z,70.70
2019-05-15T16:43:07.253Z,70.77
2019-05-15T16:45:38.569Z,70.73
2019-05-15T16:48:06.454Z,71.02
2019-05-15T16:50:35.139Z,70.75
2019-05-15T16:53:03.821Z,70.09
2019-05-15T16:55:32.620Z,70.57
2019-05-15T16:58:01.342Z,70.85
2019-05-15T17:00:30.193Z,70.86
2019-05-15T17:03:08.993Z,71.11
2019-05-15T17:05:29.309Z,71.53
2019-05-15T17:07:58.482Z,71.30
2019-05-15T17:10:28.202Z,70.99
2019-05-15T17:12:58.296Z,70.67
2019-05-15T17:15:27.976Z,71.31
2019-05-15T17:17:58.349Z,70.89
2019-05-15T17:20:28.472Z,71.21
2019-05-15T17:22:57.944Z,70.80
2019-05-15T17:25:26.942Z,71.43
2019-05-15T17:27:55.619Z,70.94
2019-05-15T17:30:24.406Z,71.08
2019-05-15T17:32:53.151Z,72.16
2019-05-15T17:35:21.830Z,72.31
2019-05-15T17:37:50.509Z,72.65
2019-05-15T17:40:19.250Z,71.67
2019-05-15T17:42:49.277Z,70.37
2019-05-15T17:45:19.314Z,69.86
2019-05-15T17:47:48.762Z,69.73
2019-05-15T17:50:19.044Z,70.00
2019-05-15T17:52:49.149Z,70.76
2019-05-15T17:55:18.422Z,71.11
2019-05-15T17:57:54.561Z,71.27
2019-05-15T18:00:19.284Z,70.58
2019-05-15T18:02:48.665Z,71.03
2019-05-15T18:05:18.893Z,70.83
2019-05-15T18:07:48.809Z,70.07
2019-05-15T18:10:18.788Z,69.90
2019-05-15T18:12:48.839Z,69.18
2019-05-15T18:15:18.308Z,70.66
2019-05-15T18:17:48.126Z,70.81
2019-05-15T18:20:24.925Z,71.18
2019-05-15T18:22:53.611Z,71.82
2019-05-15T18:25:22.412Z,71.85
2019-05-15T18:27:51.095Z,71.88
2019-05-15T18:30:20.698Z,70.98
2019-05-15T18:32:49.406Z,70.66
2019-05-15T18:35:18.769Z,71.66
2019-05-15T18:37:48.263Z,72.27
2019-05-15T18:40:18.962Z,73.43
2019-05-15T18:42:49.537Z,73.20
2019-05-15T18:45:18.812Z,73.22
2019-05-15T18:47:48.041Z,74.27
2019-05-15T18:50:17.479Z,75.47
2019-05-15T18:52:48.643Z,75.78
2019-05-15T18:55:18.396Z,76.37
2019-05-15T18:57:48.603Z,76.53
2019-05-15T19:00:18.593Z,76.57
2019-05-15T19:02:47.539Z,77.28
2019-05-15T19:05:18.548Z,77.96
2019-05-15T19:07:48.716Z,78.64
2019-05-15T19:10:20.612Z,79.18
2019-05-15T19:12:49.268Z,79.13
2019-05-15T19:15:19.137Z,79.28
2019-05-15T19:17:47.907Z,79.53
2019-05-15T19:20:18.960Z,79.88
2019-05-15T19:22:48.337Z,80.39
2019-05-15T19:25:18.005Z,80.36
2019-05-15T19:27:47.044Z,80.89
2019-05-15T19:30:18.998Z,81.16
2019-05-15T19:32:49.139Z,81.61
2019-05-15T19:35:18.599Z,82.19
2019-05-15T19:37:48.893Z,81.65
2019-05-15T19:40:18.733Z,81.58
2019-05-15T19:42:48.791Z,81.45
2019-05-15T19:45:18.142Z,81.81
2019-05-15T19:47:48.265Z,82.29
2019-05-15T19:50:18.095Z,82.14
2019-05-15T19:52:48.266Z,81.91
2019-05-15T19:55:17.987Z,81.07
2019-05-15T19:57:47.467Z,80.53
2019-05-15T20:00:18.659Z,81.06
2019-05-15T20:02:48.594Z,81.32
2019-05-15T20:05:18.317Z,81.02
2019-05-15T20:07:48.005Z,81.24
2019-05-15T20:10:18.639Z,81.31
2019-05-15T20:12:47.975Z,81.19
2019-05-15T20:15:19.058Z,81.68
2019-05-15T20:17:48.139Z,82.58
2019-05-15T20:20:18.677Z,83.40
2019-05-15T20:22:47.597Z,83.52
2019-05-15T20:25:18.346Z,83.26
2019-05-15T20:27:48.115Z,83.51
2019-05-15T20:30:18.087Z,83.89
2019-05-15T20:32:47.915Z,84.08
2019-05-15T20:35:17.095Z,83.93
2019-05-15T20:37:45.781Z,84.36
2019-05-15T20:40:15.345Z,84.76
2019-05-15T20:42:44.027Z,84.64
2019-05-15T20:45:12.908Z,84.71
2019-05-15T20:47:41.579Z,84.80
2019-05-15T20:50:10.964Z,84.40
2019-05-15T20:52:39.877Z,84.42
2019-05-15T20:55:09.670Z,84.73
2019-05-15T20:57:40.813Z,85.12
2019-05-15T21:00:11.178Z,85.15
2019-05-15T21:02:40.035Z,84.74
2019-05-15T21:05:09.194Z,84.64
2019-05-15T21:07:42.075Z,85.33
2019-05-15T21:10:09.461Z,85.39
2019-05-15T21:12:40.923Z,85.35
2019-05-15T21:15:10.790Z,84.67
2019-05-15T21:17:42.005Z,84.86
2019-05-15T21:20:10.165Z,84.94
2019-05-15T21:22:40.220Z,84.38
2019-05-15T21:25:10.970Z,84.58
2019-05-15T21:27:42.606Z,83.52
2019-05-15T21:30:11.185Z,83.04
2019-05-15T21:32:39.882Z,82.87
2019-05-15T21:35:09.474Z,82.88
2019-05-15T21:37:39.277Z,82.56
2019-05-15T21:40:09.024Z,82.52
2019-05-15T21:42:38.863Z,82.96
2019-05-15T21:45:14.193Z,83.05
2019-05-15T21:47:39.951Z,83.05
2019-05-15T21:50:09.321Z,83.93
2019-05-15T21:52:39.182Z,83.54
2019-05-15T21:55:09.833Z,83.46
2019-05-15T21:57:42.341Z,83.84
2019-05-15T22:00:31.182Z,83.18
2019-05-15T22:02:59.979Z,83.31
2019-05-15T22:05:30.346Z,83.73
2019-05-15T22:07:59.110Z,83.62
2019-05-15T22:10:28.785Z,83.67
2019-05-15T22:12:58.917Z,83.30
2019-05-15T22:15:29.189Z,82.47
2019-05-15T22:17:58.464Z,82.16
2019-05-15T22:20:30.116Z,82.63
2019-05-15T22:22:59.573Z,83.13
2019-05-15T22:25:29.334Z,82.67
2019-05-15T22:27:58.303Z,83.26
2019-05-15T22:30:29.918Z,83.68
2019-05-15T22:32:58.665Z,83.57
2019-05-15T22:35:29.406Z,82.95
2019-05-15T22:37:58.676Z,82.52
2019-05-15T22:40:28.996Z,82.36
2019-05-15T22:42:59.212Z,82.81
2019-05-15T22:45:28.808Z,82.96
2019-05-15T22:47:58.600Z,83.05
2019-05-15T22:50:28.180Z,82.66
2019-05-15T22:52:58.752Z,82.58
2019-05-15T22:55:29.036Z,82.90
2019-05-15T22:57:58.597Z,83.21
2019-05-15T23:00:29.102Z,82.68
2019-05-15T23:02:58.204Z,82.18
2019-05-15T23:05:31.400Z,81.77
2019-05-15T23:07:58.982Z,81.52
2019-05-15T23:10:29.219Z,80.80
2019-05-15T23:12:58.338Z,80.67
2019-05-15T23:15:28.163Z,80.48
2019-05-15T23:17:58.298Z,80.92
2019-05-15T23:20:28.506Z,81.18
2019-05-15T23:22:58.374Z,81.03
2019-05-15T23:25:28.961Z,81.55
2019-05-15T23:27:58.333Z,82.01
2019-05-15T23:30:28.892Z,82.20
2019-05-15T23:32:58.209Z,82.00
2019-05-15T23:35:35.513Z,81.70
2019-05-15T23:37:58.182Z,82.20
2019-05-15T23:40:28.728Z,81.60
2019-05-15T23:42:57.703Z,80.29
2019-05-15T23:45:28.759Z,80.16
2019-05-15T23:47:57.978Z,80.87
2019-05-15T23:50:28.813Z,80.69
2019-05-15T23:52:58.366Z,80.83
2019-05-15T23:55:28.574Z,80.18
2019-05-15T23:57:58.474Z,79.92
